createdAt,value
2022-10-14T00:00:33.717Z,29.83
2022-10-14T00:05:39.953Z,23.25
2022-10-14T00:15:43.750Z,23.55
2022-10-14T00:20:54.347Z,22.17
2022-10-14T00:25:55.926Z,21.73
2022-10-14T00:31:02.448Z,21.55
2022-10-14T00:36:05.829Z,22.75
2022-10-14T00:41:12.907Z,23.27
2022-10-14T00:46:17.678Z,25.90
2022-10-14T00:51:20.382Z,23.13
2022-10-14T00:56:28.705Z,21.83
2022-10-14T01:01:30.406Z,22.17
2022-10-14T01:06:50.147Z,22.42
2022-10-14T01:17:47.766Z,21.92
2022-10-14T01:23:28.222Z,20.80
2022-10-14T01:28:54.446Z,22.02
2022-10-14T01:33:59.864Z,20.73
2022-10-14T01:39:23.796Z,20.42
2022-10-14T01:44:28.099Z,20.17
2022-10-14T01:49:35.445Z,19.98
2022-10-14T01:54:43.068Z,21.02
2022-10-14T01:59:46.611Z,21.38
2022-10-14T02:04:48.173Z,22.00
2022-10-14T02:10:03.231Z,20.92
2022-10-14T02:15:30.568Z,20.45
2022-10-14T02:20:37.834Z,19.27
2022-10-14T02:25:45.210Z,21.30
2022-10-14T02:30:54.035Z,18.52
2022-10-14T02:35:56.519Z,21.17
2022-10-14T02:41:01.787Z,23.75
2022-10-14T02:46:04.703Z,23.60
2022-10-14T02:51:06.779Z,21.00
2022-10-14T02:56:10.294Z,21.70
2022-10-14T03:01:11.953Z,20.25
2022-10-14T03:06:14.113Z,19.63
2022-10-14T03:11:16.387Z,19.73
2022-10-14T03:16:19.090Z,19.30
2022-10-14T03:21:20.767Z,19.55
2022-10-14T03:26:23.893Z,20.58
2022-10-14T03:31:26.736Z,22.02
2022-10-14T03:36:46.972Z,18.17
2022-10-14T03:41:48.853Z,19.98
2022-10-14T03:46:55.238Z,19.55
2022-10-14T03:52:04.652Z,25.67
2022-10-14T03:57:09.477Z,21.40
2022-10-14T04:02:19.304Z,21.77
2022-10-14T04:07:21.175Z,24.00
2022-10-14T04:12:28.515Z,21.20
2022-10-14T04:17:41.718Z,21.77
2022-10-14T04:22:48.030Z,25.03
2022-10-14T04:27:52.088Z,25.27
2022-10-14T04:32:54.592Z,23.25
2022-10-14T04:37:56.441Z,24.00
2022-10-14T04:43:02.001Z,23.63
2022-10-14T04:48:12.693Z,21.77
2022-10-14T04:53:21.961Z,23.85
2022-10-14T04:58:36.657Z,23.00
2022-10-14T05:03:38.412Z,23.95
2022-10-14T05:08:39.995Z,23.25
2022-10-14T05:13:44.672Z,25.98
2022-10-14T05:18:46.361Z,24.70
2022-10-14T05:23:48.886Z,32.55
2022-10-14T05:28:54.309Z,25.75
2022-10-14T05:33:56.534Z,25.52
2022-10-14T05:38:59.153Z,28.00
2022-10-14T05:44:07.226Z,27.85
2022-10-14T05:49:11.475Z,42.92
2022-10-14T05:54:13.891Z,33.22
2022-10-14T05:59:17.670Z,33.28
2022-10-14T06:04:21.070Z,35.92
2022-10-14T06:09:23.378Z,31.27
2022-10-14T06:14:24.998Z,33.08
2022-10-14T06:19:27.257Z,36.05
2022-10-14T06:24:28.785Z,32.67
2022-10-14T06:29:37.673Z,39.15
2022-10-14T06:34:39.231Z,35.28
2022-10-14T06:39:42.835Z,33.38
2022-10-14T06:44:44.387Z,34.90
2022-10-14T06:49:46.059Z,39.38
2022-10-14T06:54:48.526Z,30.83
2022-10-14T06:59:50.232Z,33.13
2022-10-14T07:04:51.869Z,33.85
2022-10-14T07:09:54.169Z,31.95
2022-10-14T07:14:56.342Z,30.80
2022-10-14T07:19:58.541Z,31.92
2022-10-14T07:25:00.191Z,31.73
2022-10-14T07:30:01.772Z,30.58
2022-10-14T07:35:04.095Z,30.50
2022-10-14T07:40:06.292Z,29.77
2022-10-14T07:45:09.176Z,29.90
2022-10-14T07:50:11.487Z,25.98
2022-10-14T07:55:13.099Z,26.75
2022-10-14T08:00:14.709Z,26.73
2022-10-14T08:05:36.965Z,26.38
2022-10-14T08:10:38.786Z,24.92
2022-10-14T08:15:42.667Z,25.27
2022-10-14T08:20:44.234Z,23.80
2022-10-14T08:25:49.475Z,24.63
2022-10-14T08:30:52.812Z,25.98
2022-10-14T08:35:54.442Z,24.55
2022-10-14T08:41:16.535Z,25.27
2022-10-14T08:46:26.397Z,26.90
2022-10-14T08:51:30.597Z,26.00
2022-10-14T08:56:35.041Z,27.73
2022-10-14T09:02:08.580Z,36.22
2022-10-14T09:07:17.589Z,29.05
2022-10-14T09:12:32.065Z,27.88
2022-10-14T09:17:44.272Z,29.83
2022-10-14T09:22:57.430Z,28.63
2022-10-14T09:27:59.002Z,27.05
2022-10-14T09:33:00.971Z,25.98
2022-10-14T09:38:02.561Z,33.80
2022-10-14T09:43:10.237Z,36.72
2022-10-14T09:48:17.383Z,24.98
2022-10-14T09:53:23.427Z,5.75
2022-10-14T09:58:32.040Z,4.07
2022-10-14T10:03:39.855Z,3.42
2022-10-14T10:08:56.028Z,3.38
2022-10-14T10:13:58.094Z,3.28
2022-10-14T10:19:20.532Z,3.53
2022-10-14T10:24:26.129Z,2.20
2022-10-14T10:29:32.477Z,2.40
2022-10-14T10:35:01.803Z,2.20
2022-10-14T10:40:28.681Z,2.08
2022-10-14T10:45:50.841Z,2.42
2022-10-14T10:51:02.082Z,2.22
2022-10-14T10:56:15.812Z,4.50
2022-10-14T11:01:48.647Z,1.40
2022-10-14T11:07:09.185Z,1.17
2022-10-14T11:12:23.106Z,1.95
2022-10-14T11:17:41.478Z,1.92
2022-10-14T11:23:27.456Z,1.50
2022-10-14T11:29:06.694Z,1.80
2022-10-14T11:34:24.327Z,1.90
2022-10-14T11:39:25.848Z,2.13
2022-10-14T11:44:36.403Z,1.70
2022-10-14T11:50:18.324Z,1.90
2022-10-14T11:55:28.833Z,2.22
2022-10-14T12:01:08.642Z,2.75
2022-10-14T12:06:19.193Z,1.63
2022-10-14T12:11:26.695Z,2.70
2022-10-14T12:16:28.806Z,2.33
2022-10-14T12:21:40.727Z,2.20
2022-10-14T12:26:47.143Z,1.98
2022-10-14T12:32:05.208Z,2.58
2022-10-14T12:37:38.308Z,2.38
2022-10-14T12:42:57.677Z,1.90
2022-10-14T12:48:07.508Z,1.90
2022-10-14T12:53:37.371Z,2.00
2022-10-14T12:58:51.522Z,1.58
2022-10-14T13:03:57.464Z,1.90
2022-10-14T13:09:17.099Z,3.08
2022-10-14T13:14:26.109Z,2.00
2022-10-14T13:19:33.912Z,2.00
2022-10-14T13:24:41.634Z,2.60
2022-10-14T13:30:05.736Z,2.10
2022-10-14T13:35:14.956Z,8.35
2022-10-14T13:40:20.712Z,11.02
2022-10-14T13:45:31.016Z,11.20
2022-10-14T13:50:36.851Z,9.57
2022-10-14T13:55:51.634Z,5.17
2022-10-14T14:00:57.438Z,2.92
2022-10-14T14:06:00.647Z,1.45
2022-10-14T14:11:16.312Z,2.42
2022-10-14T14:21:27.061Z,2.30
2022-10-14T14:26:37.343Z,2.25
2022-10-14T14:32:04.985Z,3.15
2022-10-14T14:37:11.044Z,8.65
2022-10-14T14:42:25.790Z,2.95
2022-10-14T14:47:29.045Z,7.55
2022-10-14T14:52:31.184Z,15.38
2022-10-14T14:57:32.817Z,17.77
2022-10-14T15:02:35.060Z,19.25
2022-10-14T15:07:37.272Z,24.42
2022-10-14T15:12:41.968Z,22.48
2022-10-14T15:17:47.593Z,25.00
2022-10-14T15:22:49.900Z,24.98
2022-10-14T15:27:57.789Z,24.00
2022-10-14T15:33:21.281Z,29.15
2022-10-14T15:38:23.248Z,24.65
2022-10-14T15:43:27.088Z,24.15
2022-10-14T15:48:31.311Z,24.17
2022-10-14T15:53:33.885Z,24.92
2022-10-14T15:58:35.453Z,26.25
2022-10-14T16:03:40.884Z,25.38
2022-10-14T16:08:46.544Z,23.33
2022-10-14T16:13:50.192Z,25.73
2022-10-14T16:18:52.492Z,22.33
2022-10-14T16:23:54.495Z,23.02
2022-10-14T16:28:56.371Z,17.80
2022-10-14T16:33:57.977Z,9.70
2022-10-14T16:39:01.749Z,8.63
2022-10-14T16:44:05.058Z,7.65
2022-10-14T16:49:07.987Z,8.70
2022-10-14T16:54:10.243Z,8.40
2022-10-14T16:59:13.269Z,8.88
2022-10-14T17:04:15.394Z,8.93
2022-10-14T17:09:18.314Z,9.15
2022-10-14T17:14:23.002Z,8.38
2022-10-14T17:19:24.831Z,11.13
2022-10-14T17:24:26.764Z,14.07
2022-10-14T17:29:29.449Z,18.92
2022-10-14T17:34:31.955Z,22.33
2022-10-14T17:39:37.570Z,22.83
2022-10-14T17:44:43.372Z,26.40
2022-10-14T17:49:45.492Z,26.45
2022-10-14T17:54:47.071Z,26.55
2022-10-14T17:59:49.026Z,29.42
2022-10-14T18:04:50.610Z,30.42
2022-10-14T18:09:52.253Z,28.48
2022-10-14T18:14:54.357Z,32.13
2022-10-14T18:19:55.915Z,38.90
2022-10-14T18:24:57.485Z,40.50
2022-10-14T18:30:00.746Z,35.60
2022-10-14T18:35:06.764Z,35.65
2022-10-14T18:40:09.203Z,35.65
2022-10-14T18:45:10.881Z,37.42
2022-10-14T18:50:12.428Z,38.10
2022-10-14T18:55:14.085Z,37.65
2022-10-14T19:00:16.343Z,44.67
2022-10-14T19:05:18.170Z,37.38
2022-10-14T19:10:21.239Z,35.28
2022-10-14T19:15:26.280Z,33.97
2022-10-14T19:20:27.899Z,37.72
2022-10-14T19:25:29.812Z,33.33
2022-10-14T19:30:31.711Z,29.15
2022-10-14T19:35:33.341Z,28.75
2022-10-14T19:40:36.452Z,29.75
2022-10-14T19:45:40.630Z,26.83
2022-10-14T19:50:42.373Z,24.50
2022-10-14T19:55:44.149Z,23.40
2022-10-14T20:00:45.699Z,23.02
2022-10-14T20:05:47.244Z,21.45
2022-10-14T20:10:48.839Z,21.08
2022-10-14T20:16:00.245Z,20.00
2022-10-14T20:21:03.639Z,19.77
2022-10-14T20:26:12.480Z,19.73
2022-10-14T20:31:17.266Z,18.85
2022-10-14T20:36:21.487Z,18.77
2022-10-14T20:41:25.605Z,17.10
2022-10-14T20:46:27.199Z,19.00
2022-10-14T20:51:29.264Z,17.15
2022-10-14T20:56:31.923Z,17.10
2022-10-14T21:01:35.439Z,18.02
2022-10-14T21:06:38.822Z,18.30
2022-10-14T21:11:41.683Z,18.23
2022-10-14T21:16:43.786Z,16.17
2022-10-14T21:21:45.542Z,17.30
2022-10-14T21:26:51.869Z,18.33
2022-10-14T21:31:53.402Z,19.00
2022-10-14T21:36:55.027Z,16.85
2022-10-14T21:41:57.225Z,17.23
2022-10-14T21:46:58.909Z,16.80
2022-10-14T21:52:00.814Z,16.00
2022-10-14T21:57:02.413Z,16.77
2022-10-14T22:02:03.987Z,15.45
2022-10-14T22:07:06.584Z,16.35
2022-10-14T22:12:08.148Z,16.38
2022-10-14T22:17:09.807Z,16.02
2022-10-14T22:22:11.360Z,16.52
2022-10-14T22:27:12.935Z,17.15
2022-10-14T22:32:14.465Z,16.73
2022-10-14T22:37:16.030Z,14.60
2022-10-14T22:42:17.639Z,15.65
2022-10-14T22:47:19.298Z,15.20
2022-10-14T22:52:21.016Z,15.60
2022-10-14T22:57:22.791Z,14.18
2022-10-14T23:02:24.685Z,14.98
2022-10-14T23:07:28.866Z,15.25
2022-10-14T23:12:30.500Z,15.38
2022-10-14T23:17:32.179Z,15.02
2022-10-14T23:22:34.267Z,16.27
2022-10-14T23:27:36.425Z,13.38
2022-10-14T23:32:38.448Z,14.80
2022-10-14T23:37:40.068Z,14.35
2022-10-14T23:42:42.077Z,14.02
2022-10-14T23:47:43.677Z,15.18
2022-10-14T23:52:45.993Z,12.50
2022-10-14T23:57:47.607Z,14.52
